Orion Explorer — LNDT — position and weather

sailwx.info

Track history (hours):
 
Tides and Currents Weather Stations Pressure Air Temp Water Temp Dewpoint Dewpoint Depression Visibility Wind Speed Wind Dir Waves Ship Positions

Orion Explorer

Last reported at 2014-Dec-17 16:30 UTC. Time now 2014-Dec-17 19:57 UTC.
Position N 69°34' E 018°45'.

Length 59 m; draft 4.5 m.

Type: Cargo ship. MMSI: 259496000.

Date/timePositionNaut miles runAvg speedWind from/ knotsBaromVisibWave heightAir tempDewpointWater temp
2014-Dec-17 16:30N 69°34' E 018°45'8 8.3
2014-Dec-17 15:33N 69°40' E 018°59'0 0.1
2014-Dec-17 14:33N 69°40' E 018°59'6 0.4
2014-Dec-17 00:23N 69°45' E 019°08'910.7
2014-Dec-16 23:33N 69°37' E 018°56'  
2014-Dec-14 18:32N 69°34' E 018°45'7 7.1
2014-Dec-14 17:33N 69°39' E 018°58'0 0.0
2014-Dec-14 16:33N 69°39' E 018°58'0 0.0
2014-Dec-14 15:33N 69°39' E 018°58'1 1.0
2014-Dec-14 14:33N 69°40' E 018°60'3 2.9
2014-Dec-14 13:33N 69°42' E 019°05'94 9.4
2014-Dec-14 03:33N 70°32' E 022°59'1110.9
2014-Dec-14 02:33N 70°40' E 023°23'17 0.7
2014-Dec-13 02:03N 70°52' E 024°01'911.2
2014-Dec-13 01:14N 70°45' E 023°40'710.5
2014-Dec-13 00:33N 70°39' E 023°34'6 6.2
2014-Dec-12 23:33N 70°32' E 023°33'6 5.8
2014-Dec-12 22:33N 70°38' E 023°29'4 3.9
2014-Dec-12 21:33N 70°34' E 023°24'4 4.2
2014-Dec-12 20:33N 70°32' E 023°14'8 8.4
2014-Dec-12 19:33N 70°30' E 022°50'88 5.5
2014-Dec-12 03:19N 69°44' E 019°06'810.9
2014-Dec-12 02:33N 69°37' E 018°55'4 0.1
2014-Dec-10 18:21N 69°34' E 018°47'7 9.4
2014-Dec-10 17:33N 69°40' E 018°60'6 0.5
2014-Dec-10 05:27N 69°45' E 019°08'4 3.9
2014-Dec-10 04:33N 69°42' E 019°04'5 5.4
2014-Dec-10 03:33N 69°37' E 018°55'  
Track history (hours):
 
Tides and Currents Weather Stations Pressure Air Temp Water Temp Dewpoint Dewpoint Depression Visibility Wind Speed Wind Dir Waves Ship Positions

Orion Explorer

Last reported at 2014-Dec-17 16:30 UTC. Time now 2014-Dec-17 19:57 UTC.
Position N 69°34' E 018°45'.

Length 59 m; draft 4.5 m.

Type: Cargo ship. MMSI: 259496000.

Date/timePositionNaut miles runAvg speedWind from/ knotsBaromVisibWave heightAir tempDewpointWater temp
2014-Dec-17 16:30N 69°34' E 018°45'8 8.3
2014-Dec-17 15:33N 69°40' E 018°59'0 0.1
2014-Dec-17 14:33N 69°40' E 018°59'6 0.4
2014-Dec-17 00:23N 69°45' E 019°08'910.7
2014-Dec-16 23:33N 69°37' E 018°56'  
2014-Dec-14 18:32N 69°34' E 018°45'7 7.1
2014-Dec-14 17:33N 69°39' E 018°58'0 0.0
2014-Dec-14 16:33N 69°39' E 018°58'0 0.0
2014-Dec-14 15:33N 69°39' E 018°58'1 1.0
2014-Dec-14 14:33N 69°40' E 018°60'3 2.9
2014-Dec-14 13:33N 69°42' E 019°05'94 9.4
2014-Dec-14 03:33N 70°32' E 022°59'1110.9
2014-Dec-14 02:33N 70°40' E 023°23'17 0.7
2014-Dec-13 02:03N 70°52' E 024°01'911.2
2014-Dec-13 01:14N 70°45' E 023°40'710.5
2014-Dec-13 00:33N 70°39' E 023°34'6 6.2
2014-Dec-12 23:33N 70°32' E 023°33'6 5.8
2014-Dec-12 22:33N 70°38' E 023°29'4 3.9
2014-Dec-12 21:33N 70°34' E 023°24'4 4.2
2014-Dec-12 20:33N 70°32' E 023°14'8 8.4
2014-Dec-12 19:33N 70°30' E 022°50'88 5.5
2014-Dec-12 03:19N 69°44' E 019°06'810.9
2014-Dec-12 02:33N 69°37' E 018°55'4 0.1
2014-Dec-10 18:21N 69°34' E 018°47'7 9.4
2014-Dec-10 17:33N 69°40' E 018°60'6 0.5
2014-Dec-10 05:27N 69°45' E 019°08'4 3.9
2014-Dec-10 04:33N 69°42' E 019°04'5 5.4
2014-Dec-10 03:33N 69°37' E 018°55'  

Dump ship's entire track history